Time;durP1;ratioP1;P1;durP2;ratioP2;P2;SDS_P1;SDS_P2;PMS_P1;PMS_P2;Temp;Humidity;BMP_temperature;BMP_pressure;BME280_temperature;BME280_humidity;BME280_pressure;Samples;Min_cycle;Max_cycle;Signal;HPM_P1;HPM_P2
2022/11/14 00:00:12;;;;;;;83.78;32.80;;;;;;;;;;6275175;22;20427;-76
2022/11/14 00:02:37;;;;;;;79.72;33.05;;;;;;;;;;6276196;22;20000;-76
2022/11/14 00:05:04;;;;;;;81.32;34.13;;;;;;;;;;6274762;22;20011;-77
2022/11/14 00:07:30;;;;;;;80.22;33.50;;;;;;;;;;6273853;22;20030;-76
2022/11/14 00:09:55;;;;;;;81.55;33.45;;;;;;;;;;6273192;22;20406;-77
2022/11/14 00:12:21;;;;;;;83.18;33.25;;;;;;;;;;6273302;22;20000;-75
2022/11/14 00:14:46;;;;;;;73.35;31.85;;;;;;;;;;6274793;22;20082;-78
2022/11/14 00:17:11;;;;;;;74.82;30.63;;;;;;;;;;6274895;22;20008;-75
2022/11/14 00:19:37;;;;;;;80.15;32.03;;;;;;;;;;6274979;22;20007;-75
2022/11/14 00:22:02;;;;;;;81.85;33.00;;;;;;;;;;6287176;22;20014;-79
2022/11/14 00:24:28;;;;;;;85.70;34.33;;;;;;;;;;6276940;22;20011;-76
2022/11/14 00:26:53;;;;;;;80.78;33.03;;;;;;;;;;6274574;22;20000;-77
2022/11/14 00:29:19;;;;;;;86.50;34.03;;;;;;;;;;6247561;22;20012;-76
2022/11/14 00:31:44;;;;;;;81.82;34.78;;;;;;;;;;6275092;22;20053;-79
2022/11/14 00:34:09;;;;;;;90.75;34.55;;;;;;;;;;6272942;22;20426;-76
2022/11/14 00:36:35;;;;;;;79.30;34.90;;;;;;;;;;6274547;22;20449;-76
2022/11/14 00:39:00;;;;;;;87.68;36.30;;;;;;;;;;6275035;22;20004;-76
2022/11/14 00:41:26;;;;;;;82.50;35.53;;;;;;;;;;6277640;22;20069;-76
2022/11/14 00:43:51;;;;;;;89.63;35.95;;;;;;;;;;6274790;22;20446;-76
2022/11/14 00:46:17;;;;;;;91.15;36.35;;;;;;;;;;6274583;22;20004;-76
2022/11/14 00:48:42;;;;;;;91.88;37.47;;;;;;;;;;6274597;22;20069;-76
2022/11/14 00:51:08;;;;;;;91.95;37.92;;;;;;;;;;6274608;22;20008;-75
2022/11/14 00:53:33;;;;;;;89.05;38.38;;;;;;;;;;6247482;22;20078;-75
2022/11/14 00:55:59;;;;;;;90.57;36.88;;;;;;;;;;6276560;22;20132;-76
2022/11/14 00:58:24;;;;;;;90.72;38.10;;;;;;;;;;6277204;22;20006;-76
2022/11/14 01:00:50;;;;;;;89.72;39.15;;;;;;;;;;6249663;22;20078;-76
2022/11/14 01:03:16;;;;;;;91.13;38.70;;;;;;;;;;6276932;22;20042;-77
2022/11/14 01:05:46;;;;;;;88.88;38.67;;;;;;;;;;6275432;22;20004;-75
2022/11/14 01:08:12;;;;;;;85.57;37.67;;;;;;;;;;6275130;22;20141;-75
2022/11/14 01:10:40;;;;;;;89.68;38.05;;;;;;;;;;6275181;22;20012;-79
2022/11/14 01:13:05;;;;;;;87.40;38.53;;;;;;;;;;6275027;22;20000;-74
2022/11/14 01:15:31;;;;;;;79.22;36.05;;;;;;;;;;6276386;22;20030;-76
2022/11/14 01:17:56;;;;;;;83.80;35.45;;;;;;;;;;6275500;22;20049;-77
2022/11/14 01:20:21;;;;;;;88.55;37.03;;;;;;;;;;6276790;22;20079;-77
2022/11/14 01:22:47;;;;;;;88.50;37.60;;;;;;;;;;6276419;22;20000;-76
2022/11/14 01:25:12;;;;;;;85.40;36.80;;;;;;;;;;6226644;22;20749;-76
2022/11/14 01:27:38;;;;;;;89.97;36.72;;;;;;;;;;6276219;22;20004;-77
2022/11/14 01:30:04;;;;;;;90.13;35.17;;;;;;;;;;6276915;22;20427;-76
2022/11/14 01:32:29;;;;;;;88.57;37.28;;;;;;;;;;6282902;22;20338;-77
2022/11/14 01:34:54;;;;;;;87.68;37.60;;;;;;;;;;6277264;22;20029;-78
2022/11/14 01:37:20;;;;;;;83.93;35.47;;;;;;;;;;6250121;22;20004;-77
2022/11/14 01:39:45;;;;;;;72.43;32.83;;;;;;;;;;6276245;22;20038;-77
2022/11/14 01:42:11;;;;;;;75.07;33.88;;;;;;;;;;6249342;22;20000;-76
2022/11/14 01:44:51;;;;;;;85.78;36.05;;;;;;;;;;6278959;22;20007;-76
2022/11/14 01:47:24;;;;;;;82.90;36.03;;;;;;;;;;6276219;22;19999;-77
2022/11/14 01:49:52;;;;;;;77.00;36.25;;;;;;;;;;6224931;22;20007;-77
2022/11/14 01:52:28;;;;;;;87.63;37.35;;;;;;;;;;6274192;22;20003;-77
2022/11/14 01:54:54;;;;;;;89.05;36.55;;;;;;;;;;6274563;22;20426;-77
2022/11/14 01:57:24;;;;;;;100.75;36.50;;;;;;;;;;6249532;22;20004;-77
2022/11/14 01:59:51;;;;;;;99.70;36.97;;;;;;;;;;6275028;22;20364;-77
2022/11/14 02:02:22;;;;;;;86.85;35.10;;;;;;;;;;6274670;22;20000;-76
2022/11/14 02:04:55;;;;;;;82.63;33.28;;;;;;;;;;6278086;22;20047;-76
2022/11/14 02:07:20;;;;;;;90.13;33.90;;;;;;;;;;6253667;22;19995;-76
2022/11/14 02:09:46;;;;;;;78.75;33.97;;;;;;;;;;6249129;22;20004;-77
2022/11/14 02:12:14;;;;;;;78.05;33.40;;;;;;;;;;6223834;22;20004;-76
2022/11/14 02:14:40;;;;;;;87.70;33.88;;;;;;;;;;6249247;22;20411;-76
2022/11/14 02:17:05;;;;;;;86.25;34.75;;;;;;;;;;6248901;22;20031;-77
2022/11/14 02:19:42;;;;;;;73.95;32.53;;;;;;;;;;6274015;22;20346;-77
2022/11/14 02:22:08;;;;;;;71.65;29.27;;;;;;;;;;6274732;22;20062;-77
2022/11/14 02:24:33;;;;;;;74.85;31.42;;;;;;;;;;6274122;22;20415;-76
2022/11/14 02:26:58;;;;;;;79.35;31.13;;;;;;;;;;6248809;22;20091;-76
2022/11/14 02:29:24;;;;;;;72.80;30.27;;;;;;;;;;6274705;22;19999;-77
2022/11/14 02:31:49;;;;;;;73.25;31.17;;;;;;;;;;6275679;22;20003;-77
2022/11/14 02:34:18;;;;;;;66.45;28.52;;;;;;;;;;6275301;22;20003;-77
2022/11/14 02:36:44;;;;;;;71.20;29.15;;;;;;;;;;6250587;22;20064;-76
2022/11/14 02:39:09;;;;;;;68.65;28.42;;;;;;;;;;6274561;22;20046;-77
2022/11/14 02:41:35;;;;;;;74.50;29.30;;;;;;;;;;6275732;22;20006;-77
2022/11/14 02:44:00;;;;;;;74.32;27.80;;;;;;;;;;6274256;22;20008;-76
2022/11/14 02:46:26;;;;;;;66.20;27.48;;;;;;;;;;6274335;22;20008;-76
2022/11/14 02:48:51;;;;;;;64.68;26.05;;;;;;;;;;6273742;22;20003;-76
2022/11/14 02:51:16;;;;;;;67.90;27.67;;;;;;;;;;6275586;22;20364;-77
2022/11/14 02:53:42;;;;;;;70.75;27.40;;;;;;;;;;6248587;22;20357;-76
2022/11/14 02:56:07;;;;;;;68.85;27.50;;;;;;;;;;6275838;22;20004;-76
2022/11/14 02:58:33;;;;;;;69.43;26.63;;;;;;;;;;6273989;22;20007;-77
2022/11/14 03:00:58;;;;;;;73.68;28.02;;;;;;;;;;6248555;22;20030;-77
2022/11/14 03:03:24;;;;;;;69.07;27.77;;;;;;;;;;6273551;22;20007;-76
2022/11/14 03:05:52;;;;;;;73.50;27.85;;;;;;;;;;6274078;22;20098;-78
2022/11/14 03:08:18;;;;;;;72.97;27.63;;;;;;;;;;6274002;22;20378;-77
2022/11/14 03:10:44;;;;;;;66.82;28.75;;;;;;;;;;6276042;22;20003;-77
2022/11/14 03:13:09;;;;;;;69.97;27.02;;;;;;;;;;6275927;22;20469;-77
2022/11/14 03:15:38;;;;;;;79.60;30.25;;;;;;;;;;6273962;22;20003;-76
2022/11/14 03:18:03;;;;;;;78.43;30.23;;;;;;;;;;6273305;22;19995;-77
2022/11/14 03:20:28;;;;;;;74.90;30.35;;;;;;;;;;6275237;22;20015;-77
2022/11/14 03:22:54;;;;;;;87.38;34.63;;;;;;;;;;6275458;22;20011;-77
2022/11/14 03:25:19;;;;;;;85.30;35.55;;;;;;;;;;6248369;22;20011;-77
2022/11/14 03:27:45;;;;;;;76.30;32.28;;;;;;;;;;6275220;22;20422;-77
2022/11/14 03:30:11;;;;;;;74.28;31.63;;;;;;;;;;6248291;22;20475;-76
2022/11/14 03:32:36;;;;;;;66.70;28.48;;;;;;;;;;6247693;22;20004;-77
2022/11/14 03:35:01;;;;;;;75.93;32.08;;;;;;;;;;6248500;22;20012;-77
2022/11/14 03:37:27;;;;;;;70.75;33.95;;;;;;;;;;6274022;22;20039;-77
2022/11/14 03:39:52;;;;;;;63.35;30.58;;;;;;;;;;6275307;22;20011;-77
2022/11/14 03:42:18;;;;;;;58.72;28.15;;;;;;;;;;6275006;22;20011;-77
2022/11/14 03:44:43;;;;;;;59.15;28.08;;;;;;;;;;6273243;22;20057;-77
2022/11/14 03:47:09;;;;;;;63.58;29.63;;;;;;;;;;6274721;22;20004;-77
2022/11/14 03:49:34;;;;;;;64.15;29.25;;;;;;;;;;6248002;22;19992;-77
2022/11/14 03:52:00;;;;;;;69.93;30.25;;;;;;;;;;6273677;22;20030;-77
2022/11/14 03:54:25;;;;;;;71.20;29.83;;;;;;;;;;6273564;22;20000;-77
2022/11/14 03:56:51;;;;;;;69.85;31.80;;;;;;;;;;6273759;22;20342;-77
2022/11/14 03:59:16;;;;;;;64.00;30.60;;;;;;;;;;6273630;22;20004;-77
2022/11/14 04:01:41;;;;;;;74.10;32.15;;;;;;;;;;6273067;22;20004;-76
2022/11/14 04:04:07;;;;;;;67.47;30.08;;;;;;;;;;6273082;22;20030;-77
2022/11/14 04:06:32;;;;;;;62.55;30.30;;;;;;;;;;6273004;22;20504;-77
2022/11/14 04:08:58;;;;;;;66.68;31.33;;;;;;;;;;6273635;22;20005;-77
2022/11/14 04:11:24;;;;;;;61.63;30.80;;;;;;;;;;6273356;22;20034;-77
2022/11/14 04:13:50;;;;;;;65.60;31.00;;;;;;;;;;6223011;22;20014;-77
2022/11/14 04:16:15;;;;;;;58.67;30.45;;;;;;;;;;6274667;22;20003;-76
2022/11/14 04:18:41;;;;;;;59.80;29.23;;;;;;;;;;6275242;22;20003;-76
2022/11/14 04:21:06;;;;;;;61.40;29.90;;;;;;;;;;6273276;22;20004;-77
2022/11/14 04:23:32;;;;;;;54.97;29.23;;;;;;;;;;6274653;22;20000;-77
2022/11/14 04:25:57;;;;;;;61.47;30.20;;;;;;;;;;6273943;22;19996;-77
2022/11/14 04:28:22;;;;;;;59.05;29.58;;;;;;;;;;6272756;22;20007;-77
2022/11/14 04:30:48;;;;;;;57.95;28.42;;;;;;;;;;6278628;22;20110;-78
2022/11/14 04:33:13;;;;;;;55.83;27.88;;;;;;;;;;6278725;22;20015;-77
2022/11/14 04:35:39;;;;;;;55.60;29.17;;;;;;;;;;6280164;22;19995;-77
2022/11/14 04:38:04;;;;;;;60.53;29.52;;;;;;;;;;6274947;22;20126;-78
2022/11/14 04:40:30;;;;;;;61.88;29.35;;;;;;;;;;6274643;22;20000;-77
2022/11/14 04:42:55;;;;;;;57.45;29.60;;;;;;;;;;6272881;22;20000;-76
2022/11/14 04:45:20;;;;;;;64.32;29.27;;;;;;;;;;6274409;22;20011;-77
2022/11/14 04:47:46;;;;;;;62.42;29.08;;;;;;;;;;6273367;22;20505;-76
2022/11/14 04:50:11;;;;;;;90.30;30.08;;;;;;;;;;6274934;22;20484;-76
2022/11/14 04:52:37;;;;;;;219.70;29.08;;;;;;;;;;6276890;22;20031;-77
2022/11/14 04:55:02;;;;;;;300.35;27.38;;;;;;;;;;6274376;22;20008;-77
2022/11/14 04:57:28;;;;;;;339.33;28.25;;;;;;;;;;6274743;22;20077;-77
2022/11/14 04:59:55;;;;;;;284.85;25.65;;;;;;;;;;6273069;22;20419;-77
2022/11/14 05:02:20;;;;;;;197.77;25.48;;;;;;;;;;6247323;22;20014;-77
2022/11/14 05:04:47;;;;;;;210.90;26.27;;;;;;;;;;6272696;22;20098;-77
2022/11/14 05:07:13;;;;;;;239.90;26.83;;;;;;;;;;6274525;22;20439;-77
2022/11/14 05:09:38;;;;;;;147.40;27.23;;;;;;;;;;6247610;22;20000;-76
2022/11/14 05:12:04;;;;;;;223.30;27.02;;;;;;;;;;6275033;22;20011;-77
2022/11/14 05:14:30;;;;;;;309.33;30.33;;;;;;;;;;6274068;22;20082;-77
2022/11/14 05:16:56;;;;;;;304.58;31.98;;;;;;;;;;6274715;22;20000;-77
2022/11/14 05:19:21;;;;;;;127.07;27.85;;;;;;;;;;6222499;22;20028;-76
2022/11/14 05:21:47;;;;;;;179.60;29.52;;;;;;;;;;6274252;22;20008;-77
2022/11/14 05:24:12;;;;;;;197.00;29.67;;;;;;;;;;6272765;22;20430;-77
2022/11/14 05:26:38;;;;;;;144.10;29.50;;;;;;;;;;6273206;22;20403;-77
2022/11/14 05:29:04;;;;;;;181.40;29.65;;;;;;;;;;6272755;22;19999;-76
2022/11/14 05:31:29;;;;;;;243.18;29.45;;;;;;;;;;6247462;22;20007;-77
2022/11/14 05:33:54;;;;;;;158.63;28.45;;;;;;;;;;6281266;22;20008;-77
2022/11/14 05:36:20;;;;;;;88.85;27.27;;;;;;;;;;6274508;22;20015;-77
2022/11/14 05:38:45;;;;;;;92.57;27.20;;;;;;;;;;6247034;22;20007;-77
2022/11/14 05:41:14;;;;;;;292.45;30.27;;;;;;;;;;6299860;22;20059;-77
2022/11/14 05:43:39;;;;;;;191.25;29.52;;;;;;;;;;6272730;22;20493;-78
2022/11/14 05:46:06;;;;;;;186.02;27.90;;;;;;;;;;6252912;22;20012;-76
2022/11/14 05:48:35;;;;;;;223.63;29.08;;;;;;;;;;6278075;22;19999;-79
2022/11/14 05:51:01;;;;;;;243.20;30.45;;;;;;;;;;6278467;22;20008;-78
2022/11/14 05:53:28;;;;;;;146.70;29.63;;;;;;;;;;6250573;22;20026;-78
2022/11/14 05:55:58;;;;;;;258.30;28.85;;;;;;;;;;6218400;22;20016;-78
2022/11/14 05:58:24;;;;;;;276.30;29.73;;;;;;;;;;6219677;22;20137;-76
2022/11/14 06:00:50;;;;;;;162.40;27.70;;;;;;;;;;6267481;22;20070;-79
2022/11/14 06:03:15;;;;;;;198.23;29.83;;;;;;;;;;6272521;22;20003;-78
2022/11/14 06:05:42;;;;;;;221.10;31.70;;;;;;;;;;6270578;22;20079;-76
2022/11/14 06:08:07;;;;;;;224.43;31.48;;;;;;;;;;6267754;22;20000;-75
2022/11/14 06:10:36;;;;;;;199.73;31.40;;;;;;;;;;6269545;22;20031;-77
2022/11/14 06:13:01;;;;;;;210.77;32.15;;;;;;;;;;6270263;22;20000;-76
2022/11/14 06:15:27;;;;;;;155.45;30.92;;;;;;;;;;6273862;22;20343;-78
2022/11/14 06:17:53;;;;;;;150.48;32.13;;;;;;;;;;6269199;22;20104;-78
2022/11/14 06:20:19;;;;;;;323.52;33.13;;;;;;;;;;6272299;22;20003;-75
2022/11/14 06:22:44;;;;;;;118.18;30.98;;;;;;;;;;6269734;22;20008;-78
2022/11/14 06:25:09;;;;;;;196.75;32.45;;;;;;;;;;6271938;22;20087;-76
2022/11/14 06:27:35;;;;;;;283.02;31.35;;;;;;;;;;6271547;22;20007;-78
2022/11/14 06:30:01;;;;;;;235.60;30.45;;;;;;;;;;6272031;22;20010;-76
2022/11/14 06:32:26;;;;;;;159.32;31.80;;;;;;;;;;6274531;22;20000;-78
2022/11/14 06:35:12;;;;;;;175.68;34.00;;;;;;;;;;6275521;22;20470;-78
2022/11/14 06:37:37;;;;;;;173.00;40.13;;;;;;;;;;6247526;22;20000;-78
2022/11/14 06:40:03;;;;;;;140.13;41.22;;;;;;;;;;6275127;22;20031;-77
2022/11/14 06:42:29;;;;;;;200.20;40.22;;;;;;;;;;6274840;22;20077;-78
2022/11/14 06:44:57;;;;;;;119.28;38.42;;;;;;;;;;6274627;22;20617;-77
2022/11/14 06:47:29;;;;;;;131.00;37.67;;;;;;;;;;6246200;22;20538;-80
2022/11/14 06:49:55;;;;;;;114.43;36.22;;;;;;;;;;6245615;22;20008;-78
2022/11/14 06:52:25;;;;;;;197.43;36.20;;;;;;;;;;6272218;22;20027;-80
2022/11/14 06:55:03;;;;;;;214.45;36.30;;;;;;;;;;6271796;22;20003;-79
2022/11/14 06:57:31;;;;;;;162.35;32.97;;;;;;;;;;6270523;22;20442;-78
2022/11/14 06:59:56;;;;;;;112.13;33.03;;;;;;;;;;6242779;22;20000;-78
2022/11/14 07:02:22;;;;;;;145.15;33.78;;;;;;;;;;6269860;22;20621;-79
2022/11/14 07:04:47;;;;;;;129.77;32.47;;;;;;;;;;6270936;22;20015;-78
2022/11/14 07:07:13;;;;;;;120.18;34.45;;;;;;;;;;6271317;22;20411;-78
2022/11/14 07:09:38;;;;;;;145.57;32.90;;;;;;;;;;6270880;22;20354;-77
2022/11/14 07:12:04;;;;;;;160.73;33.90;;;;;;;;;;6274515;22;20082;-78
2022/11/14 07:14:29;;;;;;;266.27;35.35;;;;;;;;;;6272314;22;20007;-77
2022/11/14 07:16:55;;;;;;;230.52;36.78;;;;;;;;;;6272720;22;20011;-78
2022/11/14 07:19:20;;;;;;;146.77;34.88;;;;;;;;;;6271385;22;20004;-78
2022/11/14 07:21:47;;;;;;;177.45;34.00;;;;;;;;;;6271719;22;20078;-81
2022/11/14 07:24:16;;;;;;;211.75;31.60;;;;;;;;;;6270239;22;20472;-77
2022/11/14 07:26:42;;;;;;;214.75;31.20;;;;;;;;;;6273110;22;20004;-78
2022/11/14 07:29:07;;;;;;;205.05;32.38;;;;;;;;;;6274219;22;20065;-76
2022/11/14 07:31:32;;;;;;;209.43;33.47;;;;;;;;;;6276217;22;20315;-78
2022/11/14 07:33:58;;;;;;;245.95;32.90;;;;;;;;;;6276096;22;20389;-79
2022/11/14 07:36:23;;;;;;;215.02;34.78;;;;;;;;;;6275654;22;20000;-80
2022/11/14 07:38:49;;;;;;;222.07;35.97;;;;;;;;;;6273685;22;20012;-78
2022/11/14 07:41:15;;;;;;;170.95;38.53;;;;;;;;;;6268780;22;20422;-78
2022/11/14 07:43:40;;;;;;;184.27;39.17;;;;;;;;;;6272510;22;19996;-79
2022/11/14 07:46:09;;;;;;;171.13;40.42;;;;;;;;;;6271356;22;20004;-80
2022/11/14 07:48:34;;;;;;;194.52;40.85;;;;;;;;;;6268278;22;20015;-78
2022/11/14 07:51:05;;;;;;;195.38;38.17;;;;;;;;;;6239977;22;20069;-77
2022/11/14 07:53:31;;;;;;;186.85;34.20;;;;;;;;;;6263078;22;20004;-78
2022/11/14 07:56:01;;;;;;;175.90;32.83;;;;;;;;;;6267323;22;20586;-79
2022/11/14 07:58:27;;;;;;;177.55;31.23;;;;;;;;;;6268362;22;20006;-76
2022/11/14 08:00:52;;;;;;;174.90;30.52;;;;;;;;;;6268786;22;20027;-78
2022/11/14 08:03:18;;;;;;;179.02;29.42;;;;;;;;;;6266427;22;20065;-78
2022/11/14 08:05:43;;;;;;;138.77;26.58;;;;;;;;;;6267577;22;20011;-77
2022/11/14 08:08:09;;;;;;;136.00;28.85;;;;;;;;;;6267581;22;20007;-77
2022/11/14 08:10:34;;;;;;;157.13;30.98;;;;;;;;;;6272429;22;20003;-77
2022/11/14 08:13:01;;;;;;;82.93;27.85;;;;;;;;;;6270325;22;20031;-78
2022/11/14 08:15:27;;;;;;;179.13;27.45;;;;;;;;;;6269659;22;20008;-78
2022/11/14 08:17:58;;;;;;;168.32;27.63;;;;;;;;;;6268749;22;20426;-76
2022/11/14 08:20:25;;;;;;;164.15;28.90;;;;;;;;;;6268864;22;20011;-78
2022/11/14 08:22:51;;;;;;;158.85;28.08;;;;;;;;;;6294736;22;20004;-78
2022/11/14 08:25:17;;;;;;;174.00;34.10;;;;;;;;;;6270933;22;20011;-78
2022/11/14 08:27:45;;;;;;;139.68;32.63;;;;;;;;;;6273355;22;20008;-77
2022/11/14 08:30:11;;;;;;;204.27;34.05;;;;;;;;;;6273569;22;20000;-78
2022/11/14 08:32:37;;;;;;;184.85;33.30;;;;;;;;;;6269151;22;20335;-77
2022/11/14 08:35:02;;;;;;;264.80;32.53;;;;;;;;;;6238576;22;20146;-77
2022/11/14 08:37:33;;;;;;;316.73;33.95;;;;;;;;;;6268979;22;20081;-74
2022/11/14 08:40:00;;;;;;;294.30;31.95;;;;;;;;;;6268958;22;20007;-82
2022/11/14 08:42:26;;;;;;;372.00;34.45;;;;;;;;;;6271325;22;20007;-80
2022/11/14 08:44:51;;;;;;;319.83;34.65;;;;;;;;;;6264403;22;20072;-78
2022/11/14 08:47:17;;;;;;;168.55;30.77;;;;;;;;;;6266152;22;20094;-81
2022/11/14 08:49:42;;;;;;;141.43;31.38;;;;;;;;;;6271942;22;20030;-77
2022/11/14 08:52:08;;;;;;;176.43;32.95;;;;;;;;;;6268819;22;20010;-77
2022/11/14 08:54:33;;;;;;;276.95;34.90;;;;;;;;;;6271777;22;20030;-78
2022/11/14 08:56:59;;;;;;;306.13;34.05;;;;;;;;;;6268910;22;20257;-78
2022/11/14 08:59:25;;;;;;;358.25;34.65;;;;;;;;;;6241668;22;20553;-77
2022/11/14 09:01:50;;;;;;;247.90;33.83;;;;;;;;;;6217517;22;20030;-75
2022/11/14 09:04:16;;;;;;;195.35;30.63;;;;;;;;;;6267454;22;20449;-77
2022/11/14 09:06:41;;;;;;;221.73;33.53;;;;;;;;;;6269147;22;20419;-74
2022/11/14 09:09:07;;;;;;;285.92;35.85;;;;;;;;;;6267532;22;20007;-79
2022/11/14 09:11:33;;;;;;;225.90;34.78;;;;;;;;;;6263807;22;20018;-78
2022/11/14 09:14:00;;;;;;;149.80;33.10;;;;;;;;;;6268316;22;20015;-77
2022/11/14 09:16:25;;;;;;;264.70;30.92;;;;;;;;;;6274931;22;20031;-79
2022/11/14 09:18:51;;;;;;;221.30;30.42;;;;;;;;;;6245775;22;20015;-79
2022/11/14 09:21:16;;;;;;;75.68;27.85;;;;;;;;;;6270292;22;20057;-77
2022/11/14 09:23:42;;;;;;;92.40;30.17;;;;;;;;;;6269656;22;20004;-77
2022/11/14 09:26:08;;;;;;;134.45;30.25;;;;;;;;;;6268914;22;20015;-79
2022/11/14 09:28:34;;;;;;;115.97;30.33;;;;;;;;;;6279527;22;20002;-79
2022/11/14 09:31:07;;;;;;;158.65;30.83;;;;;;;;;;6274905;22;20004;-80
2022/11/14 09:33:33;;;;;;;96.43;29.05;;;;;;;;;;6268337;22;20000;-79
2022/11/14 09:35:59;;;;;;;114.07;29.73;;;;;;;;;;6273348;22;20390;-78
2022/11/14 09:38:24;;;;;;;199.63;31.83;;;;;;;;;;6279290;22;20024;-78
2022/11/14 09:41:07;;;;;;;201.20;31.38;;;;;;;;;;6273616;22;20026;-76
2022/11/14 09:44:09;;;;;;;113.68;30.13;;;;;;;;;;6248298;22;20003;-76
2022/11/14 09:46:45;;;;;;;159.15;30.42;;;;;;;;;;6278191;22;20007;-77
2022/11/14 09:49:24;;;;;;;154.85;31.30;;;;;;;;;;6249661;22;20378;-76
2022/11/14 09:51:53;;;;;;;96.75;28.58;;;;;;;;;;6249747;22;20438;-77
2022/11/14 09:54:25;;;;;;;111.97;30.77;;;;;;;;;;6263351;22;20012;-76
2022/11/14 09:56:54;;;;;;;99.30;30.50;;;;;;;;;;6269344;22;19999;-77
2022/11/14 09:59:20;;;;;;;109.38;31.02;;;;;;;;;;6269193;22;20011;-78
2022/11/14 10:02:10;;;;;;;99.28;30.98;;;;;;;;;;6271331;22;20535;-76
2022/11/14 10:04:47;;;;;;;109.03;30.70;;;;;;;;;;6271873;22;20007;-77
2022/11/14 10:07:36;;;;;;;82.43;29.02;;;;;;;;;;6277827;22;20007;-78
2022/11/14 10:10:23;;;;;;;85.75;30.10;;;;;;;;;;6272527;22;20088;-77
2022/11/14 10:13:12;;;;;;;92.50;29.50;;;;;;;;;;6270322;22;20010;-77
2022/11/14 10:15:50;;;;;;;72.47;27.88;;;;;;;;;;6271602;22;20014;-76
2022/11/14 10:18:22;;;;;;;87.82;28.65;;;;;;;;;;6272535;22;20000;-74
2022/11/14 10:20:53;;;;;;;95.38;29.40;;;;;;;;;;6275003;22;20391;-76
2022/11/14 10:23:33;;;;;;;77.30;29.58;;;;;;;;;;6246709;22;19999;-75
2022/11/14 10:25:59;;;;;;;88.75;29.35;;;;;;;;;;6248370;22;20000;-77
2022/11/14 10:28:53;;;;;;;74.78;29.45;;;;;;;;;;6273330;22;20030;-76
2022/11/14 10:31:30;;;;;;;84.80;29.65;;;;;;;;;;6272939;22;20402;-76
2022/11/14 10:34:03;;;;;;;71.85;29.05;;;;;;;;;;6272396;22;20008;-79
2022/11/14 10:36:49;;;;;;;71.43;28.40;;;;;;;;;;6272997;22;20035;-76
2022/11/14 10:39:26;;;;;;;69.95;27.25;;;;;;;;;;6273132;22;20427;-79
2022/11/14 10:41:53;;;;;;;66.57;27.38;;;;;;;;;;6273520;22;20000;-80
2022/11/14 10:44:25;;;;;;;74.13;29.50;;;;;;;;;;6249627;22;20473;-78
2022/11/14 10:46:58;;;;;;;71.18;27.88;;;;;;;;;;6276327;22;20150;-78
2022/11/14 10:49:24;;;;;;;69.53;28.05;;;;;;;;;;6246479;22;20007;-77
2022/11/14 10:51:59;;;;;;;107.18;30.65;;;;;;;;;;6243694;22;20114;-77
2022/11/14 10:54:34;;;;;;;65.68;29.25;;;;;;;;;;6248732;22;20007;-77
2022/11/14 10:57:00;;;;;;;64.32;29.10;;;;;;;;;;6272290;22;20006;-78
2022/11/14 10:59:29;;;;;;;69.68;28.50;;;;;;;;;;6273730;22;20349;-76
2022/11/14 11:01:56;;;;;;;63.28;28.33;;;;;;;;;;6272748;22;20008;-75
2022/11/14 11:04:32;;;;;;;64.60;28.65;;;;;;;;;;6271087;22;20015;-77
2022/11/14 11:07:07;;;;;;;66.47;30.15;;;;;;;;;;6273829;22;20350;-78
2022/11/14 11:12:23;;;;;;;67.32;28.65;;;;;;;;;;6274224;22;20050;-76
2022/11/14 11:15:06;;;;;;;60.10;28.00;;;;;;;;;;6275954;22;20069;-76
2022/11/14 11:17:32;;;;;;;63.38;27.38;;;;;;;;;;6269485;22;20006;-77
2022/11/14 11:20:29;;;;;;;61.80;28.08;;;;;;;;;;6263211;22;20020;-77
2022/11/14 11:23:24;;;;;;;56.28;27.30;;;;;;;;;;6271407;22;20147;-78
2022/11/14 11:26:04;;;;;;;54.45;26.60;;;;;;;;;;6252511;22;20024;-77
2022/11/14 11:28:31;;;;;;;56.42;27.13;;;;;;;;;;6270149;22;20083;-78
2022/11/14 11:30:58;;;;;;;57.53;27.00;;;;;;;;;;6269664;22;20591;-78
2022/11/14 11:33:24;;;;;;;63.97;28.55;;;;;;;;;;6266894;22;20107;-77
2022/11/14 11:35:51;;;;;;;61.65;27.17;;;;;;;;;;6268019;22;20017;-78
2022/11/14 11:38:16;;;;;;;56.55;27.35;;;;;;;;;;6241609;22;20003;-79
2022/11/14 11:40:43;;;;;;;60.65;29.33;;;;;;;;;;6240722;22;20004;-77
2022/11/14 11:43:22;;;;;;;68.65;31.48;;;;;;;;;;6273378;22;20025;-78
2022/11/14 11:45:48;;;;;;;77.20;30.90;;;;;;;;;;6248436;22;20007;-77
2022/11/14 11:48:21;;;;;;;57.42;27.50;;;;;;;;;;6244708;22;20078;-78
2022/11/14 11:50:47;;;;;;;59.35;28.60;;;;;;;;;;6270358;22;19999;-78
2022/11/14 11:53:23;;;;;;;72.70;31.58;;;;;;;;;;6268350;22;20429;-78
2022/11/14 11:55:51;;;;;;;66.15;30.35;;;;;;;;;;6271457;22;20069;-78
2022/11/14 11:58:40;;;;;;;67.20;31.60;;;;;;;;;;6268711;22;20015;-78
2022/11/14 12:01:11;;;;;;;74.97;32.72;;;;;;;;;;6265590;22;20033;-78
2022/11/14 12:03:37;;;;;;;69.03;31.65;;;;;;;;;;6274275;22;20010;-78
2022/11/14 12:06:26;;;;;;;79.28;34.33;;;;;;;;;;6266954;22;20004;-77
2022/11/14 12:08:54;;;;;;;85.82;38.17;;;;;;;;;;6267389;22;20010;-78
2022/11/14 12:11:21;;;;;;;85.32;37.92;;;;;;;;;;6269523;22;20004;-78
2022/11/14 12:14:08;;;;;;;82.47;36.50;;;;;;;;;;6243923;22;20062;-79
2022/11/14 12:16:51;;;;;;;81.70;33.17;;;;;;;;;;6273669;22;20085;-78
2022/11/14 12:19:26;;;;;;;89.22;38.90;;;;;;;;;;6271347;22;20185;-78
2022/11/14 12:22:16;;;;;;;92.70;37.58;;;;;;;;;;6281981;22;20031;-78
2022/11/14 12:25:18;;;;;;;88.20;36.45;;;;;;;;;;6274374;22;20019;-78
2022/11/14 12:28:02;;;;;;;86.80;36.30;;;;;;;;;;6272308;22;20010;-77
2022/11/14 12:30:27;;;;;;;87.60;37.25;;;;;;;;;;6272547;22;20003;-76
2022/11/14 12:32:59;;;;;;;93.90;37.22;;;;;;;;;;6271654;22;20112;-77
2022/11/14 12:35:35;;;;;;;93.32;40.17;;;;;;;;;;6245702;22;20003;-77
2022/11/14 12:38:03;;;;;;;95.57;40.65;;;;;;;;;;6246597;22;19999;-76
2022/11/14 12:40:36;;;;;;;86.47;38.25;;;;;;;;;;6247259;22;20423;-78
2022/11/14 12:43:02;;;;;;;91.30;36.75;;;;;;;;;;6251074;22;19996;-76
2022/11/14 12:45:40;;;;;;;91.30;36.95;;;;;;;;;;6246701;22;20402;-76
2022/11/14 12:48:24;;;;;;;92.80;40.45;;;;;;;;;;6271168;22;20008;-76
2022/11/14 12:50:49;;;;;;;95.63;38.63;;;;;;;;;;6272613;22;20324;-75
2022/11/14 12:53:36;;;;;;;97.88;39.45;;;;;;;;;;6245974;22;20074;-76
2022/11/14 12:56:29;;;;;;;95.63;40.83;;;;;;;;;;6270825;22;20334;-76
2022/11/14 12:59:11;;;;;;;99.53;38.88;;;;;;;;;;6272416;22;20008;-77
2022/11/14 13:01:49;;;;;;;104.63;38.97;;;;;;;;;;6283975;22;20086;-76
2022/11/14 13:04:22;;;;;;;109.18;44.85;;;;;;;;;;6247982;22;20019;-77
2022/11/14 13:07:05;;;;;;;154.85;66.28;;;;;;;;;;6272865;22;20003;-78
2022/11/14 13:09:34;;;;;;;113.20;48.75;;;;;;;;;;6274645;22;20003;-78
2022/11/14 13:21:46;;;;;;;94.70;39.92;;;;;;;;;;6262958;22;20010;-76
2022/11/14 13:24:12;;;;;;;94.85;37.75;;;;;;;;;;6274577;22;20446;-79
2022/11/14 13:26:42;;;;;;;104.15;38.92;;;;;;;;;;6248350;22;20031;-78
2022/11/14 13:29:33;;;;;;;96.50;38.95;;;;;;;;;;6274693;22;20145;-78
2022/11/14 13:31:59;;;;;;;99.82;38.70;;;;;;;;;;6274436;22;20035;-79
2022/11/14 13:34:49;;;;;;;95.95;38.85;;;;;;;;;;6221788;22;20057;-78
2022/11/14 13:37:32;;;;;;;97.60;39.83;;;;;;;;;;6274388;22;20315;-78
2022/11/14 13:40:05;;;;;;;98.88;37.53;;;;;;;;;;6257283;22;19996;-78
2022/11/14 13:42:57;;;;;;;104.68;41.78;;;;;;;;;;6272929;22;20045;-78
2022/11/14 13:45:49;;;;;;;112.50;40.17;;;;;;;;;;6265430;22;20023;-77
2022/11/14 13:48:39;;;;;;;105.78;40.65;;;;;;;;;;6251250;22;20015;-81
2022/11/14 13:51:06;;;;;;;113.60;41.70;;;;;;;;;;6274074;22;20000;-78
2022/11/14 13:53:32;;;;;;;125.35;48.35;;;;;;;;;;6272951;22;19995;-78
2022/11/14 13:56:00;;;;;;;153.63;64.57;;;;;;;;;;6247225;22;20058;-78
2022/11/14 13:58:47;;;;;;;109.30;41.88;;;;;;;;;;6273308;22;20000;-78
2022/11/14 14:01:30;;;;;;;112.90;41.88;;;;;;;;;;6274231;22;20000;-78
2022/11/14 14:04:16;;;;;;;116.22;42.55;;;;;;;;;;6274556;22;20012;-77
2022/11/14 14:06:45;;;;;;;109.65;42.35;;;;;;;;;;6226523;22;20031;-78
2022/11/14 14:09:25;;;;;;;126.47;44.78;;;;;;;;;;6276207;22;20039;-76
2022/11/14 14:11:57;;;;;;;119.93;44.60;;;;;;;;;;6286675;22;20000;-78
2022/11/14 14:14:34;;;;;;;122.75;45.72;;;;;;;;;;6279744;22;20642;-78
2022/11/14 14:17:08;;;;;;;130.55;46.55;;;;;;;;;;6280454;22;20015;-77
2022/11/14 14:20:01;;;;;;;123.65;46.03;;;;;;;;;;6275021;22;20003;-78
2022/11/14 14:22:26;;;;;;;121.68;44.85;;;;;;;;;;6274286;22;20008;-77
2022/11/14 14:24:52;;;;;;;127.43;45.75;;;;;;;;;;6274978;22;20081;-77
2022/11/14 14:27:26;;;;;;;131.07;46.92;;;;;;;;;;6275641;22;20061;-77
2022/11/14 14:30:10;;;;;;;148.30;61.70;;;;;;;;;;6274262;22;20004;-78
2022/11/14 14:32:35;;;;;;;132.10;52.40;;;;;;;;;;6273750;22;20007;-78
2022/11/14 14:35:28;;;;;;;141.18;63.58;;;;;;;;;;6275725;22;20000;-78